sensor_id;sensor_type;location;lat;lon;timestamp;pressure;altitude;pressure_sealevel;temperature;humidity
64095;BME280;50353;51.420;5.682;2023-07-29T00:00:13;100457.44;;;19.19;100.00
64095;BME280;50353;51.420;5.682;2023-07-29T00:02:38;100454.00;;;19.08;100.00
64095;BME280;50353;51.420;5.682;2023-07-29T00:05:04;100446.88;;;19.17;100.00
64095;BME280;50353;51.420;5.682;2023-07-29T00:07:29;100442.88;;;19.21;100.00
64095;BME280;50353;51.420;5.682;2023-07-29T00:09:54;100446.78;;;19.35;100.00
64095;BME280;50353;51.420;5.682;2023-07-29T00:12:20;100441.59;;;19.34;100.00
64095;BME280;50353;51.420;5.682;2023-07-29T00:14:45;100434.56;;;19.33;100.00
64095;BME280;50353;51.420;5.682;2023-07-29T00:17:10;100429.06;;;19.08;100.00
64095;BME280;50353;51.420;5.682;2023-07-29T00:19:35;100425.09;;;19.20;100.00
64095;BME280;50353;51.420;5.682;2023-07-29T00:22:01;100421.44;;;19.21;100.00
64095;BME280;50353;51.420;5.682;2023-07-29T00:24:26;100424.53;;;19.35;100.00
64095;BME280;50353;51.420;5.682;2023-07-29T00:26:51;100426.56;;;19.41;100.00
64095;BME280;50353;51.420;5.682;2023-07-29T00:29:16;100423.56;;;19.52;100.00
64095;BME280;50353;51.420;5.682;2023-07-29T00:31:42;100427.97;;;19.62;100.00
64095;BME280;50353;51.420;5.682;2023-07-29T00:34:07;100435.38;;;19.68;100.00
64095;BME280;50353;51.420;5.682;2023-07-29T00:36:32;100433.31;;;19.88;100.00
64095;BME280;50353;51.420;5.682;2023-07-29T00:38:57;100433.00;;;20.07;100.00
64095;BME280;50353;51.420;5.682;2023-07-29T00:41:23;100437.00;;;19.87;100.00
64095;BME280;50353;51.420;5.682;2023-07-29T00:43:48;100430.00;;;20.19;100.00
64095;BME280;50353;51.420;5.682;2023-07-29T00:46:14;100421.09;;;20.10;100.00
64095;BME280;50353;51.420;5.682;2023-07-29T00:48:40;100421.22;;;19.84;100.00
64095;BME280;50353;51.420;5.682;2023-07-29T00:51:05;100407.69;;;20.10;100.00
64095;BME280;50353;51.420;5.682;2023-07-29T00:53:31;100407.72;;;19.75;100.00
64095;BME280;50353;51.420;5.682;2023-07-29T00:55:56;100403.69;;;19.63;100.00
64095;BME280;50353;51.420;5.682;2023-07-29T00:58:22;100413.69;;;19.96;100.00
64095;BME280;50353;51.420;5.682;2023-07-29T01:00:47;100409.50;;;20.09;100.00
64095;BME280;50353;51.420;5.682;2023-07-29T01:03:12;100407.84;;;20.00;100.00
64095;BME280;50353;51.420;5.682;2023-07-29T01:05:50;100416.72;;;19.92;100.00
64095;BME280;50353;51.420;5.682;2023-07-29T01:08:27;100422.88;;;19.85;100.00
64095;BME280;50353;51.420;5.682;2023-07-29T01:13:48;100406.09;;;19.40;100.00
64095;BME280;50353;51.420;5.682;2023-07-29T01:16:23;100406.59;;;19.35;100.00
64095;BME280;50353;51.420;5.682;2023-07-29T01:18:52;100404.28;;;19.40;100.00
64095;BME280;50353;51.420;5.682;2023-07-29T01:21:19;100411.34;;;19.50;100.00
64095;BME280;50353;51.420;5.682;2023-07-29T01:23:46;100412.97;;;19.42;100.00
64095;BME280;50353;51.420;5.682;2023-07-29T01:26:11;100414.19;;;19.56;100.00
64095;BME280;50353;51.420;5.682;2023-07-29T01:28:36;100412.13;;;19.34;100.00
64095;BME280;50353;51.420;5.682;2023-07-29T01:31:23;100408.47;;;19.43;100.00
64095;BME280;50353;51.420;5.682;2023-07-29T01:34:12;100411.94;;;19.35;100.00
64095;BME280;50353;51.420;5.682;2023-07-29T01:36:39;100413.88;;;19.51;100.00
64095;BME280;50353;51.420;5.682;2023-07-29T01:39:07;100419.75;;;19.63;100.00
64095;BME280;50353;51.420;5.682;2023-07-29T01:41:34;100421.44;;;19.64;100.00
64095;BME280;50353;51.420;5.682;2023-07-29T01:44:00;100419.47;;;19.66;100.00
64095;BME280;50353;51.420;5.682;2023-07-29T01:46:26;100424.69;;;19.76;100.00
64095;BME280;50353;51.420;5.682;2023-07-29T01:48:51;100422.88;;;19.42;100.00
64095;BME280;50353;51.420;5.682;2023-07-29T01:51:17;100415.28;;;19.72;100.00
64095;BME280;50353;51.420;5.682;2023-07-29T01:53:42;100423.06;;;19.83;100.00
64095;BME280;50353;51.420;5.682;2023-07-29T01:56:07;100424.94;;;19.91;100.00
64095;BME280;50353;51.420;5.682;2023-07-29T01:58:32;100432.34;;;20.14;96.30
64095;BME280;50353;51.420;5.682;2023-07-29T02:00:58;100424.81;;;20.42;91.72
64095;BME280;50353;51.420;5.682;2023-07-29T02:03:23;100422.66;;;20.46;91.93
64095;BME280;50353;51.420;5.682;2023-07-29T02:05:48;100435.56;;;20.42;87.38
64095;BME280;50353;51.420;5.682;2023-07-29T02:08:14;100439.09;;;20.42;87.40
64095;BME280;50353;51.420;5.682;2023-07-29T02:10:39;100440.75;;;20.52;87.19
64095;BME280;50353;51.420;5.682;2023-07-29T02:13:04;100442.25;;;20.30;85.68
64095;BME280;50353;51.420;5.682;2023-07-29T02:15:30;100440.09;;;20.25;84.34
64095;BME280;50353;51.420;5.682;2023-07-29T02:17:55;100434.72;;;20.17;86.59
64095;BME280;50353;51.420;5.682;2023-07-29T02:20:20;100436.16;;;19.95;88.59
64095;BME280;50353;51.420;5.682;2023-07-29T02:22:45;100437.50;;;19.99;87.37
64095;BME280;50353;51.420;5.682;2023-07-29T02:25:11;100437.31;;;19.84;87.50
64095;BME280;50353;51.420;5.682;2023-07-29T02:27:36;100432.63;;;19.86;87.87
64095;BME280;50353;51.420;5.682;2023-07-29T02:30:02;100416.78;;;19.66;89.53
64095;BME280;50353;51.420;5.682;2023-07-29T02:32:28;100415.63;;;19.69;90.55
64095;BME280;50353;51.420;5.682;2023-07-29T02:34:53;100414.53;;;19.53;92.49
64095;BME280;50353;51.420;5.682;2023-07-29T02:37:18;100418.25;;;19.26;93.72
64095;BME280;50353;51.420;5.682;2023-07-29T02:39:44;100416.78;;;19.32;93.20
64095;BME280;50353;51.420;5.682;2023-07-29T02:42:10;100416.66;;;19.07;94.82
64095;BME280;50353;51.420;5.682;2023-07-29T02:44:35;100427.16;;;19.00;95.26
64095;BME280;50353;51.420;5.682;2023-07-29T02:47:00;100422.06;;;19.15;95.05
64095;BME280;50353;51.420;5.682;2023-07-29T02:49:25;100416.34;;;18.66;96.96
64095;BME280;50353;51.420;5.682;2023-07-29T02:51:51;100415.63;;;18.82;97.52
64095;BME280;50353;51.420;5.682;2023-07-29T02:54:16;100413.31;;;19.05;95.35
64095;BME280;50353;51.420;5.682;2023-07-29T02:56:41;100402.63;;;19.13;94.38
64095;BME280;50353;51.420;5.682;2023-07-29T02:59:07;100411.47;;;19.05;94.26
64095;BME280;50353;51.420;5.682;2023-07-29T03:01:32;100415.31;;;18.85;95.52
64095;BME280;50353;51.420;5.682;2023-07-29T03:03:58;100412.19;;;18.45;97.17
64095;BME280;50353;51.420;5.682;2023-07-29T03:06:24;100412.38;;;18.70;95.77
64095;BME280;50353;51.420;5.682;2023-07-29T03:08:49;100411.88;;;18.74;94.76
64095;BME280;50353;51.420;5.682;2023-07-29T03:11:15;100412.41;;;18.52;95.72
64095;BME280;50353;51.420;5.682;2023-07-29T03:13:42;100407.44;;;18.39;97.33
64095;BME280;50353;51.420;5.682;2023-07-29T03:16:11;100407.50;;;18.47;96.02
64095;BME280;50353;51.420;5.682;2023-07-29T03:18:38;100410.56;;;18.52;95.26
64095;BME280;50353;51.420;5.682;2023-07-29T03:21:03;100405.38;;;18.33;96.24
64095;BME280;50353;51.420;5.682;2023-07-29T03:23:29;100403.31;;;18.27;96.08
64095;BME280;50353;51.420;5.682;2023-07-29T03:25:56;100399.56;;;18.19;96.88
64095;BME280;50353;51.420;5.682;2023-07-29T03:28:27;100394.75;;;18.05;97.34
64095;BME280;50353;51.420;5.682;2023-07-29T03:30:54;100407.22;;;18.14;98.10
64095;BME280;50353;51.420;5.682;2023-07-29T03:33:19;100415.53;;;18.47;94.95
64095;BME280;50353;51.420;5.682;2023-07-29T03:35:45;100417.44;;;18.01;96.09
64095;BME280;50353;51.420;5.682;2023-07-29T03:38:11;100415.06;;;17.98;98.15
64095;BME280;50353;51.420;5.682;2023-07-29T03:40:37;100417.66;;;18.07;97.67
64095;BME280;50353;51.420;5.682;2023-07-29T03:43:02;100422.41;;;17.96;97.53
64095;BME280;50353;51.420;5.682;2023-07-29T03:45:27;100421.38;;;18.06;97.34
64095;BME280;50353;51.420;5.682;2023-07-29T03:47:53;100415.84;;;18.08;97.47
64095;BME280;50353;51.420;5.682;2023-07-29T03:50:18;100425.09;;;17.96;96.45
64095;BME280;50353;51.420;5.682;2023-07-29T03:52:43;100424.53;;;17.92;96.83
64095;BME280;50353;51.420;5.682;2023-07-29T03:55:09;100419.22;;;17.82;97.46
64095;BME280;50353;51.420;5.682;2023-07-29T03:57:34;100433.59;;;17.81;98.36
64095;BME280;50353;51.420;5.682;2023-07-29T03:59:59;100436.06;;;17.93;97.63
64095;BME280;50353;51.420;5.682;2023-07-29T04:02:24;100433.72;;;18.07;95.72
64095;BME280;50353;51.420;5.682;2023-07-29T04:04:50;100429.06;;;17.92;96.75
64095;BME280;50353;51.420;5.682;2023-07-29T04:07:15;100415.84;;;17.80;97.13
64095;BME280;50353;51.420;5.682;2023-07-29T04:09:41;100387.25;;;17.63;98.67
64095;BME280;50353;51.420;5.682;2023-07-29T04:12:08;100373.59;;;17.38;98.91
64095;BME280;50353;51.420;5.682;2023-07-29T04:14:33;100372.63;;;17.39;99.36
64095;BME280;50353;51.420;5.682;2023-07-29T04:16:58;100376.09;;;17.49;99.32
64095;BME280;50353;51.420;5.682;2023-07-29T04:19:24;100378.94;;;17.66;98.62
64095;BME280;50353;51.420;5.682;2023-07-29T04:21:49;100377.75;;;17.50;98.77
64095;BME280;50353;51.420;5.682;2023-07-29T04:24:15;100385.25;;;17.47;100.00
64095;BME280;50353;51.420;5.682;2023-07-29T04:26:41;100386.88;;;17.57;99.95
64095;BME280;50353;51.420;5.682;2023-07-29T04:29:06;100402.88;;;17.85;98.27
64095;BME280;50353;51.420;5.682;2023-07-29T04:31:31;100413.84;;;17.64;98.95
64095;BME280;50353;51.420;5.682;2023-07-29T04:33:56;100424.75;;;17.71;98.75
64095;BME280;50353;51.420;5.682;2023-07-29T04:36:22;100427.59;;;17.69;99.16
64095;BME280;50353;51.420;5.682;2023-07-29T04:38:47;100433.28;;;17.84;97.04
64095;BME280;50353;51.420;5.682;2023-07-29T04:41:12;100442.81;;;17.97;95.70
64095;BME280;50353;51.420;5.682;2023-07-29T04:43:37;100455.59;;;18.39;93.50
64095;BME280;50353;51.420;5.682;2023-07-29T04:46:06;100449.34;;;18.48;92.08
64095;BME280;50353;51.420;5.682;2023-07-29T04:48:32;100447.34;;;18.32;93.58
64095;BME280;50353;51.420;5.682;2023-07-29T04:50:58;100458.81;;;18.42;92.91
64095;BME280;50353;51.420;5.682;2023-07-29T04:53:23;100451.94;;;18.22;93.25
64095;BME280;50353;51.420;5.682;2023-07-29T04:55:48;100441.69;;;18.53;91.73
64095;BME280;50353;51.420;5.682;2023-07-29T04:58:13;100432.88;;;18.07;94.96
64095;BME280;50353;51.420;5.682;2023-07-29T05:00:39;100429.75;;;18.12;94.44
64095;BME280;50353;51.420;5.682;2023-07-29T05:03:04;100442.28;;;18.11;94.26
64095;BME280;50353;51.420;5.682;2023-07-29T05:05:29;100443.53;;;18.17;94.28
64095;BME280;50353;51.420;5.682;2023-07-29T05:07:54;100448.31;;;18.13;94.70
64095;BME280;50353;51.420;5.682;2023-07-29T05:10:20;100458.81;;;18.42;92.98
64095;BME280;50353;51.420;5.682;2023-07-29T05:12:45;100462.94;;;18.55;91.85
64095;BME280;50353;51.420;5.682;2023-07-29T05:15:11;100467.63;;;18.53;91.65
64095;BME280;50353;51.420;5.682;2023-07-29T05:17:36;100473.19;;;18.23;94.28
64095;BME280;50353;51.420;5.682;2023-07-29T05:20:02;100473.50;;;18.56;92.03
64095;BME280;50353;51.420;5.682;2023-07-29T05:22:27;100467.47;;;18.54;91.64
64095;BME280;50353;51.420;5.682;2023-07-29T05:24:52;100471.66;;;18.39;92.17
64095;BME280;50353;51.420;5.682;2023-07-29T05:27:18;100469.50;;;18.61;91.67
64095;BME280;50353;51.420;5.682;2023-07-29T05:29:43;100468.59;;;18.70;90.96
64095;BME280;50353;51.420;5.682;2023-07-29T05:32:08;100472.03;;;18.80;89.47
64095;BME280;50353;51.420;5.682;2023-07-29T05:34:34;100478.78;;;18.48;90.97
64095;BME280;50353;51.420;5.682;2023-07-29T05:36:59;100466.09;;;18.50;91.61
64095;BME280;50353;51.420;5.682;2023-07-29T05:39:24;100477.78;;;18.49;91.08
64095;BME280;50353;51.420;5.682;2023-07-29T05:41:50;100478.47;;;18.69;89.10
64095;BME280;50353;51.420;5.682;2023-07-29T05:44:15;100480.16;;;18.52;89.49
64095;BME280;50353;51.420;5.682;2023-07-29T05:46:40;100484.59;;;18.26;91.27
64095;BME280;50353;51.420;5.682;2023-07-29T05:49:06;100483.38;;;18.38;89.79
64095;BME280;50353;51.420;5.682;2023-07-29T05:51:31;100479.44;;;18.32;90.48
64095;BME280;50353;51.420;5.682;2023-07-29T05:53:56;100477.47;;;18.52;89.57
64095;BME280;50353;51.420;5.682;2023-07-29T05:56:22;100479.47;;;18.50;89.27
64095;BME280;50353;51.420;5.682;2023-07-29T05:58:47;100471.16;;;18.98;86.83
64095;BME280;50353;51.420;5.682;2023-07-29T06:01:12;100467.31;;;19.18;86.40
64095;BME280;50353;51.420;5.682;2023-07-29T06:03:37;100464.75;;;19.17;85.71
64095;BME280;50353;51.420;5.682;2023-07-29T06:06:02;100459.16;;;19.63;83.92
64095;BME280;50353;51.420;5.682;2023-07-29T06:08:28;100456.59;;;19.87;82.47
64095;BME280;50353;51.420;5.682;2023-07-29T06:10:54;100455.41;;;19.47;84.53
64095;BME280;50353;51.420;5.682;2023-07-29T06:13:19;100458.88;;;19.39;85.21
64095;BME280;50353;51.420;5.682;2023-07-29T06:15:45;100462.53;;;19.04;86.78
64095;BME280;50353;51.420;5.682;2023-07-29T06:18:10;100466.06;;;19.13;86.40
64095;BME280;50353;51.420;5.682;2023-07-29T06:20:35;100456.22;;;19.13;86.00
64095;BME280;50353;51.420;5.682;2023-07-29T06:23:01;100460.94;;;19.19;86.56
64095;BME280;50353;51.420;5.682;2023-07-29T06:25:27;100470.28;;;19.76;82.88
64095;BME280;50353;51.420;5.682;2023-07-29T06:27:52;100462.91;;;20.29;79.79
64095;BME280;50353;51.420;5.682;2023-07-29T06:30:17;100468.75;;;20.33;80.06
64095;BME280;50353;51.420;5.682;2023-07-29T06:32:43;100471.81;;;20.38;80.90
64095;BME280;50353;51.420;5.682;2023-07-29T06:35:08;100474.84;;;20.68;79.46
64095;BME280;50353;51.420;5.682;2023-07-29T06:37:33;100472.00;;;20.86;79.33
64095;BME280;50353;51.420;5.682;2023-07-29T06:39:59;100475.69;;;21.09;77.36
64095;BME280;50353;51.420;5.682;2023-07-29T06:42:24;100474.66;;;21.27;75.85
64095;BME280;50353;51.420;5.682;2023-07-29T06:44:49;100475.19;;;20.98;76.62
64095;BME280;50353;51.420;5.682;2023-07-29T06:47:14;100478.19;;;21.19;76.75
64095;BME280;50353;51.420;5.682;2023-07-29T06:49:40;100470.09;;;21.36;76.21
64095;BME280;50353;51.420;5.682;2023-07-29T06:52:05;100485.56;;;21.34;74.33
64095;BME280;50353;51.420;5.682;2023-07-29T06:54:30;100488.78;;;22.17;72.50
64095;BME280;50353;51.420;5.682;2023-07-29T06:56:56;100482.09;;;21.73;72.67
64095;BME280;50353;51.420;5.682;2023-07-29T06:59:21;100477.41;;;21.75;74.04
64095;BME280;50353;51.420;5.682;2023-07-29T07:01:46;100482.16;;;21.96;72.98
64095;BME280;50353;51.420;5.682;2023-07-29T07:04:12;100487.59;;;21.88;73.54
64095;BME280;50353;51.420;5.682;2023-07-29T07:06:37;100481.81;;;21.51;73.95
64095;BME280;50353;51.420;5.682;2023-07-29T07:09:02;100490.63;;;21.20;76.60
64095;BME280;50353;51.420;5.682;2023-07-29T07:11:28;100487.91;;;21.37;76.32
64095;BME280;50353;51.420;5.682;2023-07-29T07:13:53;100489.22;;;21.57;74.70
64095;BME280;50353;51.420;5.682;2023-07-29T07:16:19;100497.34;;;21.33;75.25
64095;BME280;50353;51.420;5.682;2023-07-29T07:18:44;100493.50;;;20.94;77.04
64095;BME280;50353;51.420;5.682;2023-07-29T07:21:09;100499.72;;;21.03;78.93
64095;BME280;50353;51.420;5.682;2023-07-29T07:23:35;100498.22;;;21.08;76.80
64095;BME280;50353;51.420;5.682;2023-07-29T07:26:01;100496.34;;;21.09;77.57
64095;BME280;50353;51.420;5.682;2023-07-29T07:28:26;100501.06;;;21.15;76.96
64095;BME280;50353;51.420;5.682;2023-07-29T07:30:52;100499.31;;;21.55;75.45
64095;BME280;50353;51.420;5.682;2023-07-29T07:33:17;100490.19;;;21.65;75.63
64095;BME280;50353;51.420;5.682;2023-07-29T07:35:42;100506.19;;;21.58;75.18
64095;BME280;50353;51.420;5.682;2023-07-29T07:38:08;100503.69;;;21.56;73.93
64095;BME280;50353;51.420;5.682;2023-07-29T07:40:35;100501.94;;;21.72;74.29
64095;BME280;50353;51.420;5.682;2023-07-29T07:43:00;100509.41;;;21.45;74.77
64095;BME280;50353;51.420;5.682;2023-07-29T07:45:26;100517.53;;;21.04;75.48
64095;BME280;50353;51.420;5.682;2023-07-29T07:47:52;100509.16;;;20.82;76.97
64095;BME280;50353;51.420;5.682;2023-07-29T07:50:18;100503.06;;;21.13;76.09
64095;BME280;50353;51.420;5.682;2023-07-29T07:52:44;100510.75;;;21.41;75.44
64095;BME280;50353;51.420;5.682;2023-07-29T07:55:09;100501.16;;;21.47;76.31
64095;BME280;50353;51.420;5.682;2023-07-29T07:57:34;100502.16;;;21.45;75.84
64095;BME280;50353;51.420;5.682;2023-07-29T08:00:00;100510.06;;;22.03;73.40
64095;BME280;50353;51.420;5.682;2023-07-29T08:02:25;100505.66;;;21.71;75.25
64095;BME280;50353;51.420;5.682;2023-07-29T08:04:50;100512.91;;;21.45;76.36
64095;BME280;50353;51.420;5.682;2023-07-29T08:07:15;100507.13;;;21.82;73.08
64095;BME280;50353;51.420;5.682;2023-07-29T08:09:41;100512.69;;;21.80;73.30
64095;BME280;50353;51.420;5.682;2023-07-29T08:12:06;100510.94;;;21.95;73.78
64095;BME280;50353;51.420;5.682;2023-07-29T08:14:31;100507.72;;;21.44;73.95
64095;BME280;50353;51.420;5.682;2023-07-29T08:16:58;100508.38;;;21.63;72.15
64095;BME280;50353;51.420;5.682;2023-07-29T08:19:23;100514.03;;;21.76;72.91
64095;BME280;50353;51.420;5.682;2023-07-29T08:21:48;100515.91;;;21.67;73.65
64095;BME280;50353;51.420;5.682;2023-07-29T08:24:14;100506.59;;;22.18;71.32
64095;BME280;50353;51.420;5.682;2023-07-29T08:26:39;100520.25;;;22.48;71.05
64095;BME280;50353;51.420;5.682;2023-07-29T08:29:04;100509.72;;;22.38;70.72
64095;BME280;50353;51.420;5.682;2023-07-29T08:31:29;100518.22;;;22.18;71.90
64095;BME280;50353;51.420;5.682;2023-07-29T08:33:58;100514.59;;;22.03;71.84
64095;BME280;50353;51.420;5.682;2023-07-29T08:36:23;100521.38;;;21.90;73.11
64095;BME280;50353;51.420;5.682;2023-07-29T08:38:49;100528.38;;;22.08;70.05
64095;BME280;50353;51.420;5.682;2023-07-29T08:41:32;100517.53;;;21.85;71.21
64095;BME280;50353;51.420;5.682;2023-07-29T08:44:06;100524.75;;;21.92;70.09
64095;BME280;50353;51.420;5.682;2023-07-29T08:46:34;100530.56;;;21.65;72.58
64095;BME280;50353;51.420;5.682;2023-07-29T08:49:00;100518.78;;;21.66;72.61
64095;BME280;50353;51.420;5.682;2023-07-29T08:51:27;100524.13;;;21.74;73.06
64095;BME280;50353;51.420;5.682;2023-07-29T08:53:53;100535.94;;;22.04;70.81
64095;BME280;50353;51.420;5.682;2023-07-29T08:56:18;100526.97;;;21.81;71.31
64095;BME280;50353;51.420;5.682;2023-07-29T08:58:44;100521.84;;;21.63;72.36
64095;BME280;50353;51.420;5.682;2023-07-29T09:01:10;100517.72;;;21.83;73.00
64095;BME280;50353;51.420;5.682;2023-07-29T09:03:36;100512.81;;;21.87;71.05
64095;BME280;50353;51.420;5.682;2023-07-29T09:06:02;100512.69;;;21.80;72.31
64095;BME280;50353;51.420;5.682;2023-07-29T09:08:27;100522.25;;;22.14;70.45
64095;BME280;50353;51.420;5.682;2023-07-29T09:10:54;100517.56;;;22.71;67.95
64095;BME280;50353;51.420;5.682;2023-07-29T09:13:20;100509.97;;;22.74;69.84
64095;BME280;50353;51.420;5.682;2023-07-29T09:15:45;100501.53;;;22.77;69.47
64095;BME280;50353;51.420;5.682;2023-07-29T09:18:14;100502.78;;;23.43;68.75
64095;BME280;50353;51.420;5.682;2023-07-29T09:20:40;100511.53;;;23.90;65.45
64095;BME280;50353;51.420;5.682;2023-07-29T09:23:08;100514.50;;;23.65;65.10
64095;BME280;50353;51.420;5.682;2023-07-29T09:25:35;100520.91;;;23.49;63.85
64095;BME280;50353;51.420;5.682;2023-07-29T09:28:02;100523.38;;;23.59;65.03
64095;BME280;50353;51.420;5.682;2023-07-29T09:30:32;100509.72;;;24.27;64.60
64095;BME280;50353;51.420;5.682;2023-07-29T09:32:58;100511.50;;;24.41;63.21
64095;BME280;50353;51.420;5.682;2023-07-29T09:35:25;100510.03;;;24.02;62.00
64095;BME280;50353;51.420;5.682;2023-07-29T09:37:51;100509.38;;;24.73;62.54
64095;BME280;50353;51.420;5.682;2023-07-29T09:40:17;100498.78;;;24.78;62.09
64095;BME280;50353;51.420;5.682;2023-07-29T09:42:53;100500.88;;;24.18;62.70
64095;BME280;50353;51.420;5.682;2023-07-29T09:45:23;100501.41;;;24.28;62.03
64095;BME280;50353;51.420;5.682;2023-07-29T09:47:49;100494.91;;;25.09;61.04
64095;BME280;50353;51.420;5.682;2023-07-29T09:50:15;100510.84;;;25.54;59.67
64095;BME280;50353;51.420;5.682;2023-07-29T09:52:41;100500.31;;;25.73;60.51
64095;BME280;50353;51.420;5.682;2023-07-29T09:55:07;100501.28;;;26.07;58.22
64095;BME280;50353;51.420;5.682;2023-07-29T09:57:32;100507.06;;;24.55;59.27
64095;BME280;50353;51.420;5.682;2023-07-29T09:59:58;100516.81;;;24.93;60.57
64095;BME280;50353;51.420;5.682;2023-07-29T10:02:24;100511.63;;;24.70;60.83
64095;BME280;50353;51.420;5.682;2023-07-29T10:04:53;100521.16;;;24.66;60.15
64095;BME280;50353;51.420;5.682;2023-07-29T10:07:20;100514.25;;;24.26;61.18
64095;BME280;50353;51.420;5.682;2023-07-29T10:09:45;100506.03;;;24.35;63.24
64095;BME280;50353;51.420;5.682;2023-07-29T10:12:12;100508.16;;;24.18;63.29
64095;BME280;50353;51.420;5.682;2023-07-29T10:14:38;100513.13;;;24.36;61.64
64095;BME280;50353;51.420;5.682;2023-07-29T10:17:05;100514.66;;;24.82;60.08
64095;BME280;50353;51.420;5.682;2023-07-29T10:19:30;100511.78;;;26.17;59.68
64095;BME280;50353;51.420;5.682;2023-07-29T10:21:59;100513.97;;;26.61;57.66
64095;BME280;50353;51.420;5.682;2023-07-29T10:24:29;100500.31;;;26.21;55.30
64095;BME280;50353;51.420;5.682;2023-07-29T10:27:00;100492.38;;;25.71;60.58
64095;BME280;50353;51.420;5.682;2023-07-29T10:29:30;100503.94;;;25.52;57.83
64095;BME280;50353;51.420;5.682;2023-07-29T10:31:57;100502.09;;;26.01;57.45
64095;BME280;50353;51.420;5.682;2023-07-29T10:34:24;100501.88;;;25.54;57.44
64095;BME280;50353;51.420;5.682;2023-07-29T10:36:50;100503.41;;;25.70;58.17
64095;BME280;50353;51.420;5.682;2023-07-29T10:39:17;100500.59;;;25.50;60.00
64095;BME280;50353;51.420;5.682;2023-07-29T10:41:58;100495.03;;;25.29;58.02
64095;BME280;50353;51.420;5.682;2023-07-29T10:49:47;100486.88;;;25.51;58.87
64095;BME280;50353;51.420;5.682;2023-07-29T10:52:27;100486.81;;;25.86;55.80
64095;BME280;50353;51.420;5.682;2023-07-29T10:54:52;100486.97;;;25.71;57.94
64095;BME280;50353;51.420;5.682;2023-07-29T10:57:35;100478.28;;;25.83;58.72
64095;BME280;50353;51.420;5.682;2023-07-29T11:00:02;100479.63;;;25.30;59.39
64095;BME280;50353;51.420;5.682;2023-07-29T11:02:33;100478.94;;;25.43;58.43
64095;BME280;50353;51.420;5.682;2023-07-29T11:05:05;100481.00;;;24.91;57.99
64095;BME280;50353;51.420;5.682;2023-07-29T11:07:30;100483.56;;;24.99;59.97
64095;BME280;50353;51.420;5.682;2023-07-29T11:09:57;100484.31;;;24.86;59.79
64095;BME280;50353;51.420;5.682;2023-07-29T11:15:26;100483.31;;;25.22;61.09
64095;BME280;50353;51.420;5.682;2023-07-29T11:17:55;100480.78;;;25.42;58.69
64095;BME280;50353;51.420;5.682;2023-07-29T11:20:23;100473.34;;;25.51;58.10
64095;BME280;50353;51.420;5.682;2023-07-29T11:22:50;100480.91;;;25.62;58.68
64095;BME280;50353;51.420;5.682;2023-07-29T11:25:17;100468.75;;;25.93;59.99
64095;BME280;50353;51.420;5.682;2023-07-29T11:27:43;100480.94;;;25.69;59.22
64095;BME280;50353;51.420;5.682;2023-07-29T11:30:11;100478.59;;;25.59;57.26
64095;BME280;50353;51.420;5.682;2023-07-29T11:32:38;100476.09;;;25.29;58.21
64095;BME280;50353;51.420;5.682;2023-07-29T11:37:28;100461.13;;;24.98;58.99
64095;BME280;50353;51.420;5.682;2023-07-29T11:39:54;100463.13;;;24.90;60.75
64095;BME280;50353;51.420;5.682;2023-07-29T11:42:19;100466.47;;;24.48;62.27
64095;BME280;50353;51.420;5.682;2023-07-29T11:44:45;100468.88;;;24.37;63.39
64095;BME280;50353;51.420;5.682;2023-07-29T11:47:11;100464.00;;;24.10;63.68
64095;BME280;50353;51.420;5.682;2023-07-29T11:49:40;100473.03;;;24.18;64.77
64095;BME280;50353;51.420;5.682;2023-07-29T11:52:07;100477.94;;;24.29;64.48
64095;BME280;50353;51.420;5.682;2023-07-29T11:54:38;100476.94;;;24.73;62.60
64095;BME280;50353;51.420;5.682;2023-07-29T11:57:09;100470.97;;;25.35;61.93
64095;BME280;50353;51.420;5.682;2023-07-29T11:59:35;100463.97;;;24.90;64.44
64095;BME280;50353;51.420;5.682;2023-07-29T12:02:01;100470.88;;;24.71;63.31
64095;BME280;50353;51.420;5.682;2023-07-29T12:04:30;100462.94;;;24.91;60.99
64095;BME280;50353;51.420;5.682;2023-07-29T12:06:55;100461.75;;;24.72;61.16
64095;BME280;50353;51.420;5.682;2023-07-29T12:09:21;100468.50;;;25.18;60.38
64095;BME280;50353;51.420;5.682;2023-07-29T12:11:46;100477.28;;;25.48;59.14
64095;BME280;50353;51.420;5.682;2023-07-29T12:14:12;100476.94;;;25.02;59.86
64095;BME280;50353;51.420;5.682;2023-07-29T12:16:44;100472.16;;;24.75;60.87
64095;BME280;50353;51.420;5.682;2023-07-29T12:19:12;100473.22;;;24.59;60.38
64095;BME280;50353;51.420;5.682;2023-07-29T12:21:38;100475.66;;;24.69;60.75
64095;BME280;50353;51.420;5.682;2023-07-29T12:24:03;100473.97;;;24.68;60.71
64095;BME280;50353;51.420;5.682;2023-07-29T12:26:29;100464.63;;;23.91;63.43
64095;BME280;50353;51.420;5.682;2023-07-29T12:28:55;100461.78;;;24.36;63.02
64095;BME280;50353;51.420;5.682;2023-07-29T12:31:21;100459.13;;;23.84;65.95
64095;BME280;50353;51.420;5.682;2023-07-29T12:33:47;100460.44;;;23.28;67.83
64095;BME280;50353;51.420;5.682;2023-07-29T12:36:12;100463.72;;;23.39;70.17
64095;BME280;50353;51.420;5.682;2023-07-29T12:38:37;100480.91;;;23.38;71.87
64095;BME280;50353;51.420;5.682;2023-07-29T12:41:03;100490.22;;;23.20;73.83
64095;BME280;50353;51.420;5.682;2023-07-29T12:43:28;100498.06;;;23.07;75.37
64095;BME280;50353;51.420;5.682;2023-07-29T12:45:54;100523.28;;;22.76;77.50
64095;BME280;50353;51.420;5.682;2023-07-29T12:48:19;100543.13;;;22.52;75.53
64095;BME280;50353;51.420;5.682;2023-07-29T12:50:44;100577.25;;;21.88;81.14
64095;BME280;50353;51.420;5.682;2023-07-29T12:53:10;100583.00;;;21.52;83.28
64095;BME280;50353;51.420;5.682;2023-07-29T12:55:36;100564.78;;;21.87;78.76